createdAt,value
2022-08-11T00:00:10.127Z,98918.56
2022-08-11T00:00:23.008Z,98927.78
2022-08-11T00:00:38.079Z,98925.81
2022-08-11T00:00:51.053Z,98924.38
2022-08-11T00:01:08.834Z,98923.22
2022-08-11T00:01:26.277Z,98920.88
2022-08-11T00:01:39.398Z,98925.56
2022-08-11T00:01:55.890Z,98921.16
2022-08-11T00:02:14.972Z,98919.09
2022-08-11T00:02:38.294Z,98926.06
2022-08-11T00:02:54.551Z,98918.72
2022-08-11T00:03:08.285Z,98920.00
2022-08-11T00:03:21.267Z,98921.72
2022-08-11T00:03:43.104Z,98921.16
2022-08-11T00:03:57.983Z,98924.13
2022-08-11T00:04:10.853Z,98924.50
2022-08-11T00:04:25.114Z,98914.88
2022-08-11T00:04:39.326Z,98919.56
2022-08-11T00:04:52.208Z,98914.81
2022-08-11T00:05:14.108Z,98921.22
2022-08-11T00:05:27.172Z,98920.50
2022-08-11T00:05:53.563Z,98920.88
2022-08-11T00:06:06.628Z,98914.62
2022-08-11T00:06:45.685Z,98920.09
2022-08-11T00:06:58.634Z,98928.59
2022-08-11T00:07:11.558Z,98920.50
2022-08-11T00:07:25.252Z,98922.00
2022-08-11T00:07:49.975Z,98921.03
2022-08-11T00:08:03.471Z,98913.72
2022-08-11T00:08:27.308Z,98918.94
2022-08-11T00:08:40.338Z,98924.97
2022-08-11T00:08:53.415Z,98914.97
2022-08-11T00:09:16.571Z,98922.28
2022-08-11T00:09:39.575Z,98922.16
2022-08-11T00:09:53.007Z,98921.72
2022-08-11T00:10:25.253Z,98916.75
2022-08-11T00:10:38.260Z,98909.50
2022-08-11T00:11:02.472Z,98920.16
2022-08-11T00:11:18.178Z,98919.97
2022-08-11T00:11:49.833Z,98915.31
2022-08-11T00:12:02.931Z,98914.91
2022-08-11T00:12:17.022Z,98919.16
2022-08-11T00:12:30.961Z,98907.94
2022-08-11T00:12:44.053Z,98917.09
2022-08-11T00:13:04.011Z,98920.63
2022-08-11T00:13:17.056Z,98915.03
2022-08-11T00:13:45.438Z,98917.72
2022-08-11T00:13:58.762Z,98917.31
2022-08-11T00:14:37.266Z,98910.13
2022-08-11T00:14:59.481Z,98921.03
2022-08-11T00:15:12.596Z,98912.41
2022-08-11T00:15:26.728Z,98916.31
2022-08-11T00:15:42.599Z,98915.41
2022-08-11T00:15:55.485Z,98914.09
2022-08-11T00:16:24.871Z,98916.88
2022-08-11T00:16:38.212Z,98917.16
2022-08-11T00:17:03.866Z,98918.25
2022-08-11T00:17:16.940Z,98912.53
2022-08-11T00:17:31.791Z,98912.00
2022-08-11T00:17:44.713Z,98917.03
2022-08-11T00:18:00.725Z,98912.34
2022-08-11T00:18:13.582Z,98908.50
2022-08-11T00:18:26.439Z,98912.41
2022-08-11T00:18:41.242Z,98911.41
2022-08-11T00:18:56.803Z,98914.09
2022-08-11T00:19:09.735Z,98918.78
2022-08-11T00:20:12.136Z,98916.47
2022-08-11T00:20:16.270Z,98920.22
2022-08-11T00:20:33.535Z,98910.63
2022-08-11T00:20:50.237Z,98920.91
2022-08-11T00:21:12.040Z,98914.69
2022-08-11T00:21:54.723Z,98913.69
2022-08-11T00:22:05.459Z,98917.81
2022-08-11T00:22:22.358Z,98920.50
2022-08-11T00:22:36.819Z,98907.00
2022-08-11T00:22:50.040Z,98914.62
2022-08-11T00:23:07.744Z,98910.50
2022-08-11T00:23:20.698Z,98905.59
2022-08-11T00:23:34.034Z,98903.81
2022-08-11T00:23:52.954Z,98909.38
2022-08-11T00:24:06.288Z,98911.47
2022-08-11T00:24:19.180Z,98910.41
2022-08-11T00:24:53.583Z,98914.97
2022-08-11T00:25:15.007Z,98910.97
2022-08-11T00:25:27.920Z,98908.84
2022-08-11T00:25:43.203Z,98914.44
2022-08-11T00:26:06.743Z,98908.06
2022-08-11T00:26:19.827Z,98913.25
2022-08-11T00:26:33.152Z,98916.09
2022-08-11T00:26:52.775Z,98906.47
2022-08-11T00:27:05.833Z,98910.78
2022-08-11T00:27:18.956Z,98901.31
2022-08-11T00:27:35.492Z,98902.38
2022-08-11T00:27:48.637Z,98909.25
2022-08-11T00:28:03.865Z,98906.00
2022-08-11T00:28:33.262Z,98901.66
2022-08-11T00:28:46.279Z,98909.19
2022-08-11T00:29:08.743Z,98915.03
2022-08-11T00:29:21.738Z,98903.53
2022-08-11T00:29:34.763Z,98911.53
2022-08-11T00:29:54.464Z,98910.19
2022-08-11T00:30:08.602Z,98909.03
2022-08-11T00:30:21.747Z,98909.41
2022-08-11T00:30:40.540Z,98909.91
2022-08-11T00:30:53.547Z,98908.94
2022-08-11T00:31:08.298Z,98914.34
2022-08-11T00:31:27.334Z,98910.06
2022-08-11T00:31:44.594Z,98905.56
2022-08-11T00:31:58.164Z,98905.16
2022-08-11T00:32:13.679Z,98912.13
2022-08-11T00:32:26.860Z,98909.00
2022-08-11T00:32:42.078Z,98911.41
2022-08-11T00:32:56.323Z,98908.31
2022-08-11T00:33:09.238Z,98905.50
2022-08-11T00:33:43.453Z,98913.53
2022-08-11T00:33:56.374Z,98918.53
2022-08-11T00:34:11.116Z,98908.12
2022-08-11T00:34:26.906Z,98903.75
2022-08-11T00:34:39.830Z,98905.03
2022-08-11T00:34:52.750Z,98902.06
2022-08-11T00:35:51.863Z,98909.84
2022-08-11T00:36:01.120Z,98906.59
2022-08-11T00:36:15.890Z,98910.13
2022-08-11T00:36:38.308Z,98906.06
2022-08-11T00:36:55.440Z,98907.47
2022-08-11T00:37:10.647Z,98901.31
2022-08-11T00:37:49.977Z,98908.91
2022-08-11T00:38:03.313Z,98908.50
2022-08-11T00:38:16.908Z,98914.53
2022-08-11T00:38:31.901Z,98909.38
2022-08-11T00:38:45.524Z,98904.22
2022-08-11T00:39:04.298Z,98899.56
2022-08-11T00:39:19.229Z,98906.56
2022-08-11T00:39:34.280Z,98913.25
2022-08-11T00:39:50.472Z,98910.28
2022-08-11T00:40:03.906Z,98913.47
2022-08-11T00:40:28.316Z,98915.16
2022-08-11T00:41:18.555Z,98909.06
2022-08-11T00:41:33.033Z,98910.63
2022-08-11T00:41:59.145Z,98906.94
2022-08-11T00:42:28.397Z,98911.47
2022-08-11T00:43:21.175Z,98909.28
2022-08-11T00:44:05.124Z,98909.06
2022-08-11T00:44:39.054Z,98909.13
2022-08-11T00:45:02.841Z,98906.47
2022-08-11T00:45:29.338Z,98906.28
2022-08-11T00:45:55.865Z,98908.72
2022-08-11T00:46:13.051Z,98900.09
2022-08-11T00:46:25.798Z,98900.69
2022-08-11T00:46:43.240Z,98905.50
2022-08-11T00:46:58.786Z,98903.81
2022-08-11T00:47:22.681Z,98910.19
2022-08-11T00:48:09.155Z,98909.41
2022-08-11T00:48:29.616Z,98905.75
2022-08-11T00:49:00.637Z,98909.06
2022-08-11T00:49:56.374Z,98909.41
2022-08-11T00:50:31.312Z,98902.53
2022-08-11T00:51:06.323Z,98903.69
2022-08-11T00:52:04.133Z,98906.38
2022-08-11T01:19:00.848Z,98901.31
2022-08-11T01:19:17.605Z,98901.31
2022-08-11T01:20:45.684Z,98897.66
2022-08-11T01:20:47.431Z,98898.25
2022-08-11T01:21:29.735Z,98897.22
2022-08-11T01:22:04.025Z,98904.81
2022-08-11T01:22:32.593Z,98900.97
2022-08-11T01:23:04.430Z,98901.25
2022-08-11T01:23:44.178Z,98906.03
2022-08-11T01:24:30.960Z,98898.13
2022-08-11T01:25:02.037Z,98904.78
2022-08-11T01:25:57.081Z,98905.38
2022-08-11T01:26:25.294Z,98905.66
2022-08-11T01:26:44.159Z,98904.78
2022-08-11T01:27:29.302Z,98900.53
2022-08-11T01:27:53.084Z,98900.28
2022-08-11T01:28:21.098Z,98899.88
2022-08-11T01:29:08.482Z,98895.22
2022-08-11T01:29:36.143Z,98903.16
2022-08-11T01:30:08.462Z,98901.03
2022-08-11T01:30:54.917Z,98898.69
2022-08-11T01:31:33.959Z,98897.13
2022-08-11T01:31:47.217Z,98897.19
2022-08-11T01:32:27.737Z,98894.97
2022-08-11T01:32:52.284Z,98898.16
2022-08-11T01:33:08.186Z,98893.69
2022-08-11T01:33:51.460Z,98896.91
2022-08-11T01:57:00.468Z,98882.41
2022-08-11T01:57:47.759Z,98882.41
2022-08-11T01:58:28.358Z,98886.38
2022-08-11T01:59:17.736Z,98885.06
2022-08-11T01:59:37.181Z,98886.41
2022-08-11T01:59:52.367Z,98879.84
2022-08-11T02:00:20.047Z,98883.00
2022-08-11T02:00:36.591Z,98882.13
2022-08-11T02:01:28.142Z,98881.00
2022-08-11T02:01:40.964Z,98879.03
2022-08-11T02:02:42.939Z,98879.87
2022-08-11T02:03:08.035Z,98884.28
2022-08-11T02:03:45.284Z,98876.25
2022-08-11T02:04:05.579Z,98880.41
2022-08-11T02:04:43.118Z,98878.94
2022-08-11T02:05:03.909Z,98880.41
2022-08-11T02:05:35.305Z,98882.56
2022-08-11T02:06:29.241Z,98884.81
2022-08-11T02:07:20.979Z,98877.44
2022-08-11T02:07:38.980Z,98876.31
2022-08-11T02:08:19.110Z,98881.37
2022-08-11T02:08:50.677Z,98877.78
2022-08-11T02:09:20.502Z,98878.56
2022-08-11T02:10:01.663Z,98877.56
2022-08-11T02:10:50.821Z,98877.81
2022-08-11T02:11:28.738Z,98874.53
2022-08-11T02:11:43.027Z,98877.91
2022-08-11T02:12:00.162Z,98880.13
2022-08-11T02:12:16.358Z,98873.25
2022-08-11T02:12:52.316Z,98884.19
2022-08-11T02:13:42.235Z,98877.31
2022-08-11T02:14:16.776Z,98875.53
2022-08-11T02:14:37.776Z,98878.13
2022-08-11T02:15:36.686Z,98869.81
2022-08-11T02:15:56.851Z,98879.09
2022-08-11T02:16:27.027Z,98869.38
2022-08-11T02:16:42.638Z,98874.97
2022-08-11T02:17:17.046Z,98877.19
2022-08-11T02:17:54.945Z,98873.50
2022-08-11T02:18:15.994Z,98870.84
2022-08-11T02:18:54.443Z,98875.88
2022-08-11T02:20:01.600Z,98876.16
2022-08-11T02:20:41.162Z,98873.63
2022-08-11T02:21:21.553Z,98877.59
2022-08-11T03:00:08.799Z,98859.69
2022-08-11T03:00:22.675Z,98859.69
2022-08-11T03:00:47.360Z,98858.84
2022-08-11T03:01:32.374Z,98860.38
2022-08-11T03:02:04.814Z,98867.44
2022-08-11T03:02:32.357Z,98867.44
2022-08-11T03:03:16.426Z,98854.47
2022-08-11T03:03:39.270Z,98858.28
2022-08-11T03:04:15.788Z,98854.41
2022-08-11T03:04:55.295Z,98858.09
2022-08-11T03:05:12.119Z,98864.94
2022-08-11T03:05:56.104Z,98863.72
2022-08-11T03:06:26.910Z,98859.88
2022-08-11T03:06:54.119Z,98862.78
2022-08-11T03:07:28.472Z,98851.50
2022-08-11T03:08:11.867Z,98854.00
2022-08-11T03:08:40.772Z,98861.06
2022-08-11T03:09:14.418Z,98858.63
2022-08-11T03:09:44.220Z,98858.78
2022-08-11T03:10:29.994Z,98858.91
2022-08-11T03:11:15.831Z,98859.16
2022-08-11T03:12:12.805Z,98859.28
2022-08-11T03:12:53.522Z,98860.38
2022-08-11T03:13:35.445Z,98857.47
2022-08-11T03:14:33.745Z,98865.16
2022-08-11T03:15:36.214Z,98857.19
2022-08-11T03:16:28.426Z,98866.78
2022-08-11T03:16:46.915Z,98864.28
2022-08-11T03:17:14.788Z,98858.44
2022-08-11T03:17:41.265Z,98861.09
2022-08-11T03:18:16.530Z,98863.66
2022-08-11T03:18:43.220Z,98857.03
2022-08-11T03:19:32.580Z,98860.22
2022-08-11T03:20:07.104Z,98856.88
2022-08-11T03:20:38.420Z,98857.09
2022-08-11T03:21:11.480Z,98854.69
2022-08-11T03:22:03.072Z,98860.22
2022-08-11T03:22:28.844Z,98859.81
2022-08-11T03:22:50.562Z,98859.47
2022-08-11T03:23:19.940Z,98859.53
2022-08-11T03:24:08.111Z,98863.94
2022-08-11T03:24:34.469Z,98857.25
2022-08-11T03:25:12.876Z,98864.44
2022-08-11T03:25:51.944Z,98864.44
2022-08-11T03:26:33.517Z,98863.31
2022-08-11T03:27:11.089Z,98859.34
2022-08-11T03:27:52.755Z,98856.38
2022-08-11T03:28:36.534Z,98856.50
2022-08-11T03:29:05.117Z,98858.22
2022-08-11T03:29:56.830Z,98858.72
2022-08-11T03:30:21.682Z,98868.13
2022-08-11T03:30:37.163Z,98856.31
2022-08-11T03:30:59.620Z,98866.44
2022-08-11T03:31:15.297Z,98858.69
2022-08-11T03:31:34.917Z,98858.69
2022-08-11T03:31:56.974Z,98858.81
2022-08-11T03:32:20.373Z,98861.50
2022-08-11T03:33:30.580Z,98857.69
2022-08-11T03:34:07.116Z,98863.94
2022-08-11T03:34:56.950Z,98859.00
2022-08-11T03:35:09.886Z,98863.31
2022-08-11T03:35:37.784Z,98864.69
2022-08-11T03:36:09.435Z,98859.88
2022-08-11T03:36:28.193Z,98863.94
2022-08-11T03:37:53.488Z,98854.19
2022-08-11T03:38:09.791Z,98855.66
2022-08-11T03:38:30.658Z,98860.94
2022-08-11T04:16:10.962Z,98865.97
2022-08-11T04:16:49.079Z,98865.97
2022-08-11T04:17:22.819Z,98873.41
2022-08-11T04:18:15.800Z,98872.56
2022-08-11T04:18:50.527Z,98878.78
2022-08-11T04:19:18.703Z,98876.94
2022-08-11T04:20:09.918Z,98881.13
2022-08-11T04:20:35.839Z,98874.75
2022-08-11T04:20:57.480Z,98874.63
2022-08-11T04:21:10.258Z,98877.06
2022-08-11T04:21:44.902Z,98873.03
2022-08-11T04:22:09.980Z,98870.34
2022-08-11T04:22:26.186Z,98871.19
2022-08-11T04:23:03.697Z,98875.94
2022-08-11T04:24:36.728Z,98873.91
2022-08-11T04:25:06.008Z,98873.50
2022-08-11T05:21:17.607Z,98874.69
2022-08-11T05:21:54.445Z,98879.09
2022-08-11T05:22:31.029Z,98884.62
2022-08-11T05:23:10.804Z,98886.38
2022-08-11T05:23:42.833Z,98892.19
2022-08-11T05:24:43.199Z,98890.59
2022-08-11T05:26:09.340Z,98887.19
2022-08-11T05:26:46.807Z,98895.63
2022-08-11T05:27:13.769Z,98898.72
2022-08-11T05:27:54.077Z,98899.34
2022-08-11T05:28:29.685Z,98893.25
2022-08-11T05:29:19.706Z,98897.28
2022-08-11T05:30:05.489Z,98897.19
2022-08-11T05:30:37.042Z,98899.22
2022-08-11T05:31:08.495Z,98898.19
2022-08-11T05:31:43.631Z,98896.91
2022-08-11T05:32:17.768Z,98906.13
2022-08-11T05:32:58.024Z,98902.84
2022-08-11T05:33:40.083Z,98908.09
2022-08-11T05:34:15.557Z,98906.59
2022-08-11T05:34:54.204Z,98900.88
2022-08-11T05:35:07.650Z,98904.88
2022-08-11T05:36:01.297Z,98903.66
2022-08-11T05:36:32.059Z,98900.34
2022-08-11T05:37:25.066Z,98899.81
2022-08-11T05:38:03.508Z,98898.97
2022-08-11T05:38:38.659Z,98894.72
2022-08-11T05:39:36.271Z,98899.19
2022-08-11T05:40:09.996Z,98901.78
2022-08-11T05:40:41.684Z,98896.41
2022-08-11T05:41:23.006Z,98893.44
2022-08-11T05:41:56.598Z,98904.47
2022-08-11T05:42:29.932Z,98904.00
2022-08-11T05:43:08.247Z,98893.78
2022-08-11T05:44:20.446Z,98901.44
2022-08-11T05:44:39.274Z,98903.87
2022-08-11T05:45:15.907Z,98901.06
2022-08-11T05:45:58.671Z,98901.91
2022-08-11T05:46:37.089Z,98907.12
2022-08-11T05:47:10.801Z,98901.28
2022-08-11T05:47:44.144Z,98905.81
2022-08-11T05:48:15.708Z,98896.44
2022-08-11T05:48:51.775Z,98899.56
2022-08-11T05:49:27.958Z,98896.97
2022-08-11T05:50:08.621Z,98902.13
2022-08-11T05:50:45.170Z,98908.63
2022-08-11T05:51:17.821Z,98892.72
2022-08-11T05:51:57.213Z,98899.12
2022-08-11T05:52:49.058Z,98906.66
2022-08-11T05:53:31.595Z,98899.81
2022-08-11T05:54:28.259Z,98900.28
2022-08-11T05:55:03.939Z,98902.19
2022-08-11T05:56:02.457Z,98895.56
2022-08-11T05:56:20.535Z,98900.41
2022-08-11T05:56:34.051Z,98902.03
2022-08-11T05:56:56.949Z,98903.81
2022-08-11T05:57:09.901Z,98900.28
2022-08-11T05:57:51.310Z,98901.63
2022-08-11T05:58:06.155Z,98909.03
2022-08-11T05:58:20.520Z,98897.66
2022-08-11T05:58:42.329Z,98904.41
2022-08-11T05:58:55.914Z,98900.41
2022-08-11T05:59:13.802Z,98898.59
2022-08-11T05:59:28.484Z,98906.66
2022-08-11T05:59:41.542Z,98905.94
2022-08-11T06:00:02.605Z,98911.06
2022-08-11T06:00:15.554Z,98904.69
2022-08-11T06:00:28.558Z,98906.16
2022-08-11T06:00:45.838Z,98897.53
2022-08-11T06:00:59.267Z,98902.94
2022-08-11T06:01:13.287Z,98905.31
2022-08-11T06:01:31.230Z,98903.81
2022-08-11T06:01:45.014Z,98899.91
2022-08-11T06:02:17.735Z,98903.47
2022-08-11T06:02:30.901Z,98899.50
2022-08-11T06:02:49.388Z,98904.91
2022-08-11T06:03:29.423Z,98899.97
2022-08-11T06:04:02.915Z,98904.84
2022-08-11T06:04:23.601Z,98906.28
2022-08-11T06:04:37.210Z,98908.53
2022-08-11T06:04:57.193Z,98906.47
2022-08-11T06:05:10.355Z,98906.06
2022-08-11T06:05:25.141Z,98907.69
2022-08-11T06:05:44.009Z,98900.44
2022-08-11T06:05:58.252Z,98907.41
2022-08-11T06:06:11.147Z,98903.16
2022-08-11T06:06:27.216Z,98904.84
2022-08-11T06:06:55.845Z,98908.47
2022-08-11T06:07:10.126Z,98901.94
2022-08-11T06:07:27.658Z,98904.03
2022-08-11T06:07:49.254Z,98906.47
2022-08-11T06:08:33.239Z,98902.44
2022-08-11T06:09:06.082Z,98904.94
2022-08-11T06:09:32.695Z,98904.31
2022-08-11T06:09:50.626Z,98906.66
2022-08-11T06:10:04.408Z,98900.12
2022-08-11T06:10:41.551Z,98905.28
2022-08-11T06:10:54.465Z,98906.38
2022-08-11T06:11:07.432Z,98904.84
2022-08-11T06:11:20.471Z,98911.03
2022-08-11T06:11:53.455Z,98905.75
2022-08-11T06:12:11.189Z,98910.84
2022-08-11T06:12:32.557Z,98907.28
2022-08-11T06:12:52.833Z,98912.91
2022-08-11T06:13:06.903Z,98908.22
2022-08-11T06:13:19.949Z,98905.28
2022-08-11T06:13:33.026Z,98909.56
2022-08-11T06:13:45.907Z,98907.84
2022-08-11T06:13:58.775Z,98910.41
2022-08-11T06:14:11.840Z,98908.09
2022-08-11T06:14:24.783Z,98904.16
2022-08-11T06:14:43.126Z,98907.00
2022-08-11T06:14:56.828Z,98902.59
2022-08-11T06:15:11.753Z,98909.03
2022-08-11T06:15:24.628Z,98903.72
2022-08-11T06:15:48.045Z,98905.72
2022-08-11T06:16:06.307Z,98908.78
2022-08-11T06:16:24.040Z,98905.97
2022-08-11T06:16:36.995Z,98906.84
2022-08-11T06:16:51.395Z,98906.56
2022-08-11T06:17:05.561Z,98902.59
2022-08-11T06:17:46.634Z,98906.78
2022-08-11T06:18:01.383Z,98913.38
2022-08-11T06:18:14.805Z,98902.44
2022-08-11T06:18:28.139Z,98909.66
2022-08-11T06:18:46.639Z,98900.91
2022-08-11T06:19:00.270Z,98905.78
2022-08-11T06:19:15.903Z,98906.66
2022-08-11T06:19:41.121Z,98907.62
2022-08-11T06:20:07.228Z,98914.13
2022-08-11T06:20:20.810Z,98908.12
2022-08-11T06:20:37.557Z,98905.03
2022-08-11T06:21:00.418Z,98909.22
2022-08-11T06:21:14.383Z,98903.22
2022-08-11T06:21:27.903Z,98908.09
2022-08-11T06:21:47.256Z,98901.31
2022-08-11T06:22:01.242Z,98905.00
2022-08-11T06:22:19.412Z,98906.00
2022-08-11T06:22:32.810Z,98906.38
2022-08-11T06:23:06.927Z,98901.72
2022-08-11T06:23:20.575Z,98901.47
2022-08-11T06:23:36.232Z,98902.47
2022-08-11T06:23:49.378Z,98904.13
2022-08-11T06:24:13.273Z,98900.41
2022-08-11T06:24:28.481Z,98904.44
2022-08-11T06:24:45.608Z,98900.84
2022-08-11T06:25:00.546Z,98906.66
2022-08-11T06:25:13.506Z,98905.53
2022-08-11T06:25:35.867Z,98906.06
2022-08-11T06:25:48.910Z,98900.34
2022-08-11T06:26:01.956Z,98909.97
2022-08-11T06:26:14.870Z,98906.66
2022-08-11T06:26:27.744Z,98900.41
2022-08-11T06:27:11.370Z,98904.19
2022-08-11T06:27:21.850Z,98894.31
2022-08-11T06:27:35.785Z,98901.63
2022-08-11T06:27:49.415Z,98899.97
2022-08-11T06:28:06.374Z,98899.81
2022-08-11T06:28:21.367Z,98894.81
2022-08-11T06:28:39.797Z,98900.56
2022-08-11T06:28:52.738Z,98906.03
2022-08-11T06:29:05.682Z,98906.13
2022-08-11T06:29:18.695Z,98896.69
2022-08-11T06:29:37.999Z,98903.81
2022-08-11T06:30:01.237Z,98901.59
2022-08-11T06:30:14.269Z,98899.75
2022-08-11T06:30:35.375Z,98901.31
2022-08-11T06:30:49.037Z,98898.25
2022-08-11T06:31:03.172Z,98902.38
2022-08-11T06:31:25.165Z,98897.00
2022-08-11T06:31:38.061Z,98892.44
2022-08-11T06:31:56.967Z,98896.84
2022-08-11T06:32:13.556Z,98901.53
2022-08-11T06:32:36.024Z,98905.09
2022-08-11T06:32:51.719Z,98898.84
2022-08-11T06:33:04.691Z,98897.13
2022-08-11T06:33:34.983Z,98900.22
2022-08-11T06:33:50.610Z,98900.47
2022-08-11T06:34:27.444Z,98902.97
2022-08-11T06:35:14.129Z,98901.13
2022-08-11T06:35:46.009Z,98896.34
2022-08-11T06:36:11.673Z,98898.63
2022-08-11T06:36:51.084Z,98905.56
2022-08-11T06:37:14.867Z,98902.00
2022-08-11T06:37:35.790Z,98900.47
2022-08-11T06:38:10.694Z,98895.41
2022-08-11T06:38:40.115Z,98895.59
2022-08-11T06:39:11.333Z,98897.88
2022-08-11T06:39:29.802Z,98900.12
2022-08-11T06:39:48.047Z,98911.06
2022-08-11T06:41:09.819Z,98903.31
2022-08-11T06:41:30.606Z,98900.50
2022-08-11T06:41:54.339Z,98908.19
2022-08-11T06:42:11.731Z,98898.91
2022-08-11T06:42:45.328Z,98905.13
2022-08-11T06:43:06.694Z,98901.16
2022-08-11T06:43:23.473Z,98904.44
2022-08-11T07:13:01.773Z,98891.06
2022-08-11T07:13:44.919Z,98891.06
2022-08-11T07:14:18.748Z,98893.22
2022-08-11T07:14:50.235Z,98891.66
2022-08-11T07:15:25.162Z,98895.13
2022-08-11T07:16:10.989Z,98891.16
2022-08-11T07:16:28.684Z,98894.38
2022-08-11T07:16:42.275Z,98895.34
2022-08-11T07:16:55.192Z,98901.84
2022-08-11T07:17:14.811Z,98897.63
2022-08-11T07:17:28.303Z,98898.13
2022-08-11T07:17:49.543Z,98897.06
2022-08-11T07:18:22.537Z,98900.19
2022-08-11T07:18:55.209Z,98891.88
2022-08-11T07:19:26.929Z,98893.94
2022-08-11T07:19:58.605Z,98899.59
2022-08-11T07:20:30.195Z,98901.41
2022-08-11T07:21:02.539Z,98898.56
2022-08-11T07:22:01.973Z,98895.34
2022-08-11T07:22:35.339Z,98895.97
2022-08-11T07:23:16.098Z,98892.78
2022-08-11T07:23:48.391Z,98898.34
2022-08-11T07:24:21.583Z,98895.63
2022-08-11T07:25:11.917Z,98895.78
2022-08-11T07:25:43.557Z,98908.00
2022-08-11T07:26:14.950Z,98903.16
2022-08-11T07:26:46.550Z,98901.34
2022-08-11T07:27:18.119Z,98891.44
2022-08-11T07:28:01.625Z,98893.97
2022-08-11T07:28:40.518Z,98897.22
2022-08-11T07:28:58.836Z,98897.81
2022-08-11T07:29:16.137Z,98901.19
2022-08-11T07:29:30.328Z,98903.37
2022-08-11T07:29:43.726Z,98899.28
2022-08-11T07:29:56.709Z,98900.59
2022-08-11T07:30:10.161Z,98898.13
2022-08-11T07:30:23.234Z,98894.97
2022-08-11T07:30:39.904Z,98899.38
2022-08-11T07:30:54.521Z,98897.47
2022-08-11T07:31:26.264Z,98898.81
2022-08-11T07:32:03.480Z,98900.66
2022-08-11T07:32:26.297Z,98902.22
2022-08-11T07:32:48.983Z,98900.81
2022-08-11T07:33:02.229Z,98902.19
2022-08-11T07:33:21.151Z,98905.38
2022-08-11T07:34:05.617Z,98908.78
2022-08-11T07:34:36.859Z,98901.25
2022-08-11T07:34:53.332Z,98902.87
2022-08-11T07:35:14.197Z,98906.22
2022-08-11T07:35:34.380Z,98905.94
2022-08-11T07:35:49.900Z,98906.59
2022-08-11T07:36:02.828Z,98899.09
2022-08-11T07:36:15.873Z,98909.84
2022-08-11T07:36:29.097Z,98909.63
2022-08-11T07:36:44.419Z,98906.28
2022-08-11T07:36:58.553Z,98903.75
2022-08-11T07:37:17.895Z,98903.97
2022-08-11T07:37:33.263Z,98902.59
2022-08-11T07:38:01.424Z,98898.47
2022-08-11T07:38:45.087Z,98898.50
2022-08-11T07:39:00.427Z,98908.06
2022-08-11T07:39:17.203Z,98905.31
2022-08-11T07:39:33.335Z,98902.94
2022-08-11T07:39:47.549Z,98905.97
2022-08-11T07:40:00.571Z,98906.31
2022-08-11T07:40:13.701Z,98896.97
2022-08-11T07:40:26.656Z,98899.91
2022-08-11T07:40:39.564Z,98902.53
2022-08-11T07:40:52.447Z,98905.50
2022-08-11T07:41:05.418Z,98908.06
2022-08-11T07:41:23.336Z,98906.34
2022-08-11T07:41:36.246Z,98906.34
2022-08-11T07:41:50.323Z,98907.59
2022-08-11T07:42:07.782Z,98905.22
2022-08-11T07:42:24.203Z,98909.47
2022-08-11T07:42:37.381Z,98907.59
2022-08-11T07:43:07.241Z,98907.78
2022-08-11T07:43:20.293Z,98903.78
2022-08-11T07:43:34.777Z,98909.72
2022-08-11T07:44:17.689Z,98910.91
2022-08-11T07:44:34.674Z,98903.97
2022-08-11T07:45:06.583Z,98903.97
2022-08-11T07:45:38.106Z,98906.13
2022-08-11T07:46:09.918Z,98902.31
2022-08-11T07:46:41.709Z,98902.75
2022-08-11T07:47:13.270Z,98901.50
2022-08-11T07:47:45.195Z,98897.34
2022-08-11T07:48:16.970Z,98897.78
2022-08-11T07:48:48.694Z,98908.56
2022-08-11T07:49:21.573Z,98897.63
2022-08-11T07:49:56.558Z,98896.91
2022-08-11T07:50:28.080Z,98900.25
2022-08-11T07:51:00.672Z,98900.53
2022-08-11T07:51:37.382Z,98902.50
2022-08-11T07:52:09.011Z,98898.63
2022-08-11T07:52:31.060Z,98897.53
2022-08-11T07:52:43.953Z,98894.16
2022-08-11T07:52:59.906Z,98893.75
2022-08-11T07:53:13.457Z,98895.03
2022-08-11T07:53:26.860Z,98895.59
2022-08-11T07:53:41.784Z,98900.75
2022-08-11T07:54:17.037Z,98890.78
2022-08-11T07:54:33.475Z,98891.62
2022-08-11T07:54:50.119Z,98894.75
2022-08-11T07:55:15.148Z,98893.88
2022-08-11T07:55:49.565Z,98898.78
2022-08-11T07:56:01.748Z,98888.72
2022-08-11T07:56:17.386Z,98888.16
2022-08-11T07:56:55.077Z,98883.69
2022-08-11T07:58:02.242Z,98890.66
2022-08-11T07:58:45.613Z,98894.00
2022-08-11T07:59:25.455Z,98892.12
2022-08-11T08:00:15.519Z,98889.00
2022-08-11T08:00:51.859Z,98888.44
2022-08-11T08:01:23.837Z,98880.50
2022-08-11T08:01:55.212Z,98880.69
2022-08-11T08:02:28.977Z,98884.91
2022-08-11T08:03:02.086Z,98891.03
2022-08-11T08:03:33.492Z,98884.41
2022-08-11T08:04:05.305Z,98886.16
2022-08-11T08:04:37.283Z,98889.28
2022-08-11T08:05:09.083Z,98888.97
2022-08-11T08:05:40.718Z,98892.28
2022-08-11T08:06:23.268Z,98898.50
2022-08-11T08:07:04.138Z,98896.19
2022-08-11T08:07:35.683Z,98885.97
2022-08-11T08:08:08.082Z,98883.34
2022-08-11T08:08:39.788Z,98888.94
2022-08-11T08:09:14.278Z,98882.72
2022-08-11T08:09:45.776Z,98875.16
2022-08-11T08:10:17.136Z,98874.00
2022-08-11T08:10:48.664Z,98877.97
2022-08-11T08:11:25.497Z,98875.81
2022-08-11T08:11:58.779Z,98871.13
2022-08-11T08:12:30.578Z,98875.38
2022-08-11T08:13:02.575Z,98881.06
2022-08-11T08:13:33.939Z,98870.25
2022-08-11T08:14:05.618Z,98881.84
2022-08-11T08:14:37.230Z,98883.13
2022-08-11T08:15:12.392Z,98881.34
2022-08-11T08:15:43.909Z,98876.16
2022-08-11T08:16:15.511Z,98877.19
2022-08-11T08:16:48.159Z,98876.34
2022-08-11T08:17:19.709Z,98876.34
2022-08-11T08:18:09.995Z,98872.84
2022-08-11T08:18:27.129Z,98877.38
2022-08-11T08:18:41.299Z,98884.31
2022-08-11T08:18:54.159Z,98880.56
2022-08-11T08:19:26.980Z,98876.88
2022-08-11T08:19:44.386Z,98884.72
2022-08-11T08:19:58.317Z,98879.56
2022-08-11T08:20:12.661Z,98876.59
2022-08-11T08:20:28.474Z,98876.19
2022-08-11T08:21:12.118Z,98875.09
2022-08-11T08:21:25.213Z,98869.75
2022-08-11T08:21:39.164Z,98878.50
2022-08-11T08:21:52.018Z,98879.75
2022-08-11T08:22:38.759Z,98876.22
2022-08-11T08:22:56.461Z,98875.22
2022-08-11T08:23:09.494Z,98881.78
2022-08-11T08:23:35.133Z,98872.66
2022-08-11T08:23:53.748Z,98873.37
2022-08-11T08:24:07.290Z,98873.81
2022-08-11T08:24:21.108Z,98878.66
2022-08-11T08:24:34.152Z,98871.78
2022-08-11T08:24:47.188Z,98876.00
2022-08-11T08:25:00.072Z,98879.91
2022-08-11T08:25:13.679Z,98888.34
2022-08-11T08:25:27.918Z,98885.91
2022-08-11T08:25:41.540Z,98888.03
2022-08-11T08:25:55.030Z,98885.31
2022-08-11T08:26:31.010Z,98882.91
2022-08-11T08:26:59.056Z,98882.44
2022-08-11T08:27:13.841Z,98876.34
2022-08-11T08:27:26.770Z,98878.06
2022-08-11T08:27:43.638Z,98872.25
2022-08-11T08:27:56.893Z,98878.91
2022-08-11T08:28:16.646Z,98884.06
2022-08-11T08:28:32.456Z,98883.91
2022-08-11T08:28:46.665Z,98883.50
2022-08-11T08:29:21.213Z,98878.66
2022-08-11T08:29:54.949Z,98876.91
2022-08-11T08:30:27.162Z,98877.38
2022-08-11T08:30:50.674Z,98872.94
2022-08-11T08:31:04.028Z,98873.66
2022-08-11T08:31:17.070Z,98876.34
2022-08-11T08:31:29.968Z,98872.03
2022-08-11T08:31:42.970Z,98872.56
2022-08-11T08:31:56.653Z,98869.88
2022-08-11T08:32:11.292Z,98873.00
2022-08-11T08:32:24.180Z,98869.75
2022-08-11T08:32:40.506Z,98875.94
2022-08-11T08:32:53.635Z,98875.06
2022-08-11T08:33:06.519Z,98876.03
2022-08-11T08:33:27.805Z,98879.75